Aviation Digital Data Service (ADDS)

Output produced by METARs form (1818 UTC 19 August 2019)
found at http://www.aviationweather.gov/metar/data/
 
Forecast for: WMAP (KLUANG , MY)
Text: TAF WMAP 191700Z 1918/2018 10005KT 9999 FEW018
Forecast period: 1800 to 2000 UTC 19 August 2019
Forecast type: FROM: standard forecast or significant change
Winds: from the E (100 degrees) at 6 MPH (5 knots; 2.6 m/s)
Visibility: 6 or more miles 10+ km)
Ceiling: at least 12,000 feet AGL
Clouds: few clouds at 1800 feet AGL
Weather: no significant weather forecast for this period
Text: BECMG 1920/1922 15005KT FEW020
Forecast period: 2000 UTC 19 August 2019 to 1800 UTC 20 August 2019
Forecast type: BECOMING: Conditions expected to become as follows by 2200 UTC 19 August 2019
Winds: from the SSE (150 degrees) at 6 MPH (5 knots; 2.6 m/s)
Visibility: 6 or more miles 10+ km)
Ceiling: at least 12,000 feet AGL
Clouds: few clouds at 2000 feet AGL
Weather: no significant weather forecast for this period
Text: PROB30
Forecast period: 0700 to 1100 UTC 20 August 2019
Forecast type: TEMPORARY: The following changes expected for less than half the time period
Visibility: 2.49 miles (4.01 km)
Ceiling: at least 12,000 feet AGL
Clouds: few clouds at 1700 feet AGL
scattered clouds at 1800 feet AGL
Weather: TSRA  (rain associated with thunderstorm(s))